createdAt,value
2022-10-09T00:01:20.960Z,100.00
2022-10-09T00:03:50.783Z,100.00
2022-10-09T00:06:28.564Z,100.00
2022-10-09T00:08:56.053Z,100.00
2022-10-09T00:11:26.552Z,100.00
2022-10-09T00:13:54.849Z,100.00
2022-10-09T00:16:23.014Z,100.00
2022-10-09T00:18:50.906Z,100.00
2022-10-09T00:21:21.494Z,100.00
2022-10-09T00:23:48.893Z,100.00
2022-10-09T00:26:16.092Z,100.00
2022-10-09T00:28:43.205Z,100.00
2022-10-09T00:31:11.655Z,100.00
2022-10-09T00:33:38.948Z,100.00
2022-10-09T00:36:10.077Z,100.00
2022-10-09T00:38:37.685Z,100.00
2022-10-09T00:41:05.039Z,100.00
2022-10-09T00:43:53.690Z,100.00
2022-10-09T00:46:34.676Z,100.00
2022-10-09T00:49:10.792Z,100.00
2022-10-09T00:51:38.357Z,100.00
2022-10-09T00:54:10.012Z,100.00
2022-10-09T00:56:37.154Z,100.00
2022-10-09T00:59:04.618Z,100.00
2022-10-09T01:01:31.642Z,100.00
2022-10-09T01:03:58.608Z,100.00
2022-10-09T01:06:53.302Z,100.00
2022-10-09T01:09:43.298Z,100.00
2022-10-09T01:13:17.346Z,100.00
2022-10-09T01:15:58.436Z,100.00
2022-10-09T01:18:47.175Z,100.00
2022-10-09T01:21:26.125Z,100.00
2022-10-09T01:24:25.874Z,100.00
2022-10-09T01:27:27.854Z,100.00
2022-10-09T01:30:00.907Z,100.00
2022-10-09T01:32:37.331Z,100.00
2022-10-09T01:35:06.287Z,100.00
2022-10-09T01:37:35.283Z,100.00
2022-10-09T01:40:04.497Z,100.00
2022-10-09T01:42:32.652Z,100.00
2022-10-09T01:44:59.728Z,100.00
2022-10-09T01:47:26.829Z,100.00
2022-10-09T01:50:19.654Z,100.00
2022-10-09T01:53:06.713Z,100.00
2022-10-09T01:55:50.114Z,100.00
2022-10-09T01:58:57.040Z,100.00
2022-10-09T02:01:27.154Z,100.00
2022-10-09T02:03:56.425Z,100.00
2022-10-09T02:06:24.040Z,100.00
2022-10-09T02:08:53.501Z,100.00
2022-10-09T02:11:21.223Z,100.00
2022-10-09T02:13:53.087Z,100.00
2022-10-09T02:16:37.779Z,100.00
2022-10-09T02:19:20.086Z,100.00
2022-10-09T02:22:18.530Z,100.00
2022-10-09T02:24:46.617Z,100.00
2022-10-09T02:27:14.673Z,100.00
2022-10-09T02:29:44.037Z,100.00
2022-10-09T02:32:12.042Z,100.00
2022-10-09T02:34:39.237Z,100.00
2022-10-09T02:37:07.071Z,100.00
2022-10-09T02:39:34.547Z,100.00
2022-10-09T02:42:01.695Z,100.00
2022-10-09T02:44:28.695Z,100.00
2022-10-09T02:46:55.620Z,100.00
2022-10-09T02:49:22.745Z,100.00
2022-10-09T02:51:49.681Z,100.00
2022-10-09T02:54:16.639Z,100.00
2022-10-09T02:56:43.605Z,100.00
2022-10-09T02:59:10.526Z,100.00
2022-10-09T03:01:37.590Z,100.00
2022-10-09T03:04:05.150Z,100.00
2022-10-09T03:06:32.613Z,100.00
2022-10-09T03:08:59.614Z,100.00
2022-10-09T03:11:26.720Z,100.00
2022-10-09T03:13:54.582Z,100.00
2022-10-09T03:16:25.057Z,100.00
2022-10-09T03:18:53.627Z,100.00
2022-10-09T03:21:27.069Z,100.00
2022-10-09T03:23:54.973Z,100.00
2022-10-09T03:26:25.626Z,100.00
2022-10-09T03:28:54.469Z,100.00
2022-10-09T03:31:50.761Z,100.00
2022-10-09T03:34:12.507Z,100.00
2022-10-09T03:36:39.681Z,100.00
2022-10-09T03:39:06.660Z,100.00
2022-10-09T03:41:33.790Z,100.00
2022-10-09T03:44:00.799Z,100.00
2022-10-09T03:46:27.796Z,100.00
2022-10-09T03:48:54.872Z,100.00
2022-10-09T03:51:21.788Z,100.00
2022-10-09T03:53:49.120Z,100.00
2022-10-09T03:56:16.026Z,100.00
2022-10-09T03:58:42.961Z,100.00
2022-10-09T04:01:09.929Z,100.00
2022-10-09T04:03:37.050Z,100.00
2022-10-09T04:06:04.115Z,100.00
2022-10-09T04:08:31.102Z,100.00
2022-10-09T04:10:59.304Z,100.00
2022-10-09T04:13:27.055Z,100.00
2022-10-09T04:15:55.434Z,100.00
2022-10-09T04:18:22.900Z,100.00
2022-10-09T04:20:57.161Z,100.00
2022-10-09T04:23:26.959Z,100.00
2022-10-09T04:25:59.416Z,100.00
2022-10-09T04:28:28.505Z,100.00
2022-10-09T04:30:57.407Z,100.00
2022-10-09T04:33:26.573Z,100.00
2022-10-09T04:35:55.345Z,100.00
2022-10-09T04:38:23.368Z,100.00
2022-10-09T04:41:05.338Z,100.00
2022-10-09T04:43:33.948Z,100.00
2022-10-09T04:46:08.777Z,100.00
2022-10-09T04:48:44.563Z,100.00
2022-10-09T04:51:13.409Z,100.00
2022-10-09T04:53:40.933Z,100.00
2022-10-09T04:56:14.809Z,100.00
2022-10-09T04:58:42.815Z,100.00
2022-10-09T05:01:24.474Z,100.00
2022-10-09T05:03:52.597Z,100.00
2022-10-09T05:06:21.086Z,100.00
2022-10-09T05:08:48.489Z,100.00
2022-10-09T05:11:22.333Z,100.00
2022-10-09T05:13:55.220Z,100.00
2022-10-09T05:16:28.837Z,100.00
2022-10-09T05:18:58.920Z,100.00
2022-10-09T05:21:26.999Z,100.00
2022-10-09T05:23:55.616Z,100.00
2022-10-09T05:26:24.735Z,100.00
2022-10-09T05:28:52.259Z,100.00
2022-10-09T05:31:28.844Z,100.00
2022-10-09T05:33:59.230Z,100.00
2022-10-09T05:36:26.318Z,100.00
2022-10-09T05:38:53.214Z,100.00
2022-10-09T05:41:20.342Z,100.00
2022-10-09T05:43:49.535Z,100.00
2022-10-09T05:46:19.386Z,100.00
2022-10-09T05:48:53.264Z,100.00
2022-10-09T05:51:27.525Z,100.00
2022-10-09T05:53:55.034Z,100.00
2022-10-09T05:56:31.272Z,100.00
2022-10-09T05:59:02.019Z,100.00
2022-10-09T06:01:33.480Z,100.00
2022-10-09T06:04:01.540Z,100.00
2022-10-09T06:06:31.927Z,100.00
2022-10-09T06:08:59.489Z,100.00
2022-10-09T06:11:32.945Z,100.00
2022-10-09T06:14:02.759Z,100.00
2022-10-09T06:16:33.991Z,100.00
2022-10-09T06:19:02.538Z,100.00
2022-10-09T06:21:29.779Z,100.00
2022-10-09T06:24:00.392Z,100.00
2022-10-09T06:26:29.486Z,100.00
2022-10-09T06:29:01.328Z,100.00
2022-10-09T06:31:33.638Z,100.00
2022-10-09T06:34:02.137Z,100.00
2022-10-09T06:36:32.089Z,100.00
2022-10-09T06:39:01.405Z,100.00
2022-10-09T06:41:29.627Z,100.00
2022-10-09T06:44:04.425Z,100.00
2022-10-09T06:46:38.725Z,100.00
2022-10-09T06:49:08.278Z,100.00
2022-10-09T06:51:36.311Z,100.00
2022-10-09T06:54:11.370Z,100.00
2022-10-09T06:56:38.438Z,100.00
2022-10-09T06:59:07.324Z,100.00
2022-10-09T07:01:35.030Z,100.00
2022-10-09T07:04:12.822Z,100.00
2022-10-09T07:06:44.039Z,100.00
2022-10-09T07:09:13.199Z,100.00
2022-10-09T07:11:44.539Z,100.00
2022-10-09T07:14:13.457Z,100.00
2022-10-09T07:16:44.025Z,100.00
2022-10-09T07:19:13.065Z,100.00
2022-10-09T07:21:43.748Z,100.00
2022-10-09T07:24:11.979Z,100.00
2022-10-09T07:26:43.373Z,100.00
2022-10-09T07:29:13.184Z,100.00
2022-10-09T07:31:40.261Z,100.00
2022-10-09T07:34:07.248Z,100.00
2022-10-09T07:36:34.609Z,100.00
2022-10-09T07:39:02.522Z,100.00
2022-10-09T07:41:30.438Z,100.00
2022-10-09T07:43:58.070Z,100.00
2022-10-09T07:46:32.195Z,100.00
2022-10-09T07:49:01.081Z,100.00
2022-10-09T07:51:29.244Z,100.00
2022-10-09T07:53:57.272Z,100.00
2022-10-09T07:56:29.548Z,100.00
2022-10-09T07:59:02.358Z,100.00
2022-10-09T08:01:32.151Z,100.00
2022-10-09T08:04:00.050Z,100.00
2022-10-09T08:06:27.803Z,100.00
2022-10-09T08:08:56.861Z,100.00
2022-10-09T08:11:26.464Z,100.00
2022-10-09T08:13:53.897Z,100.00
2022-10-09T08:16:22.648Z,100.00
2022-10-09T08:18:49.858Z,100.00
2022-10-09T08:21:20.339Z,100.00
2022-10-09T08:23:47.446Z,100.00
2022-10-09T08:26:17.430Z,100.00
2022-10-09T08:28:49.366Z,100.00
2022-10-09T08:31:17.468Z,100.00
2022-10-09T08:33:44.554Z,100.00
2022-10-09T08:36:16.605Z,100.00
2022-10-09T08:38:48.353Z,100.00
2022-10-09T08:41:32.849Z,100.00
2022-10-09T08:44:08.362Z,100.00
2022-10-09T08:47:13.826Z,100.00
2022-10-09T08:49:57.289Z,98.44
2022-10-09T08:52:36.092Z,97.98
2022-10-09T08:55:35.134Z,97.24
2022-10-09T08:58:05.870Z,96.05
2022-10-09T09:00:45.646Z,92.35
2022-10-09T09:03:49.466Z,93.84
2022-10-09T09:06:57.931Z,93.20
2022-10-09T09:09:40.113Z,92.71
2022-10-09T09:12:17.331Z,89.47
2022-10-09T09:15:44.733Z,88.30
2022-10-09T09:18:39.625Z,89.05
2022-10-09T09:21:36.143Z,90.12
2022-10-09T09:24:18.328Z,89.96
2022-10-09T09:26:50.979Z,87.55
2022-10-09T09:29:23.669Z,87.27
2022-10-09T09:31:59.750Z,87.26
2022-10-09T09:34:41.850Z,87.25
2022-10-09T09:37:12.151Z,86.70
2022-10-09T09:40:34.948Z,84.62
2022-10-09T09:42:36.349Z,82.52
2022-10-09T09:45:07.905Z,82.61
2022-10-09T09:47:46.787Z,81.41
2022-10-09T09:50:52.907Z,81.41
2022-10-09T09:53:37.982Z,80.29
2022-10-09T09:56:11.374Z,78.45
2022-10-09T09:58:48.525Z,78.68
2022-10-09T10:01:28.873Z,80.35
2022-10-09T10:04:04.601Z,79.62
2022-10-09T10:06:43.492Z,79.72
2022-10-09T10:09:17.510Z,79.74
2022-10-09T10:12:04.318Z,71.06
2022-10-09T10:14:32.497Z,69.80
2022-10-09T10:17:01.054Z,69.62
2022-10-09T10:19:38.692Z,70.18
2022-10-09T10:22:20.598Z,69.00
2022-10-09T10:24:50.098Z,67.77
2022-10-09T10:27:40.566Z,68.55
2022-10-09T10:30:20.109Z,68.75
2022-10-09T10:32:59.926Z,67.62
2022-10-09T10:35:36.033Z,67.87
2022-10-09T10:38:25.125Z,68.06
2022-10-09T10:41:20.370Z,67.64
2022-10-09T10:43:59.271Z,65.27
2022-10-09T10:46:39.793Z,66.12
2022-10-09T10:49:11.821Z,65.17
2022-10-09T10:52:11.649Z,63.88
2022-10-09T10:54:43.368Z,63.05
2022-10-09T10:57:51.665Z,60.92
2022-10-09T11:00:18.761Z,61.73
2022-10-09T11:03:09.568Z,60.80
2022-10-09T11:05:55.778Z,61.82
2022-10-09T11:08:40.422Z,61.72
2022-10-09T11:11:47.842Z,60.58
2022-10-09T11:14:55.187Z,60.31
2022-10-09T11:17:47.232Z,58.46
2022-10-09T11:20:49.521Z,58.82
2022-10-09T11:23:43.619Z,57.72
2022-10-09T11:26:37.942Z,58.41
2022-10-09T11:29:21.960Z,56.91
2022-10-09T11:31:57.889Z,59.41
2022-10-09T11:34:34.661Z,56.43
2022-10-09T11:37:02.811Z,59.97
2022-10-09T11:39:32.443Z,55.98
2022-10-09T11:42:00.545Z,57.50
2022-10-09T11:45:01.844Z,53.73
2022-10-09T11:47:41.911Z,54.23
2022-10-09T11:50:36.372Z,54.24
2022-10-09T11:53:11.954Z,53.98
2022-10-09T11:55:39.557Z,53.68
2022-10-09T11:58:18.932Z,54.29
2022-10-09T12:00:50.548Z,53.42
2022-10-09T12:03:34.026Z,54.60
2022-10-09T12:06:13.234Z,54.66
2022-10-09T12:08:53.601Z,54.48
2022-10-09T12:11:21.482Z,54.53
2022-10-09T12:13:55.480Z,53.20
2022-10-09T12:16:44.832Z,53.07
2022-10-09T12:20:00.747Z,53.66
2022-10-09T12:22:40.014Z,52.76
2022-10-09T12:25:32.469Z,52.61
2022-10-09T12:28:00.726Z,53.48
2022-10-09T12:30:45.048Z,51.03
2022-10-09T12:33:37.168Z,51.34
2022-10-09T12:36:14.449Z,51.35
2022-10-09T12:38:42.950Z,51.61
2022-10-09T12:41:25.080Z,50.29
2022-10-09T12:43:55.150Z,49.71
2022-10-09T12:46:34.982Z,50.01
2022-10-09T12:49:08.745Z,49.20
2022-10-09T12:51:35.721Z,48.45
2022-10-09T12:54:09.976Z,49.43
2022-10-09T12:56:38.884Z,49.12
2022-10-09T12:59:09.134Z,49.67
2022-10-09T13:01:36.499Z,49.50
2022-10-09T13:04:06.039Z,49.02
2022-10-09T13:06:46.190Z,48.46
2022-10-09T13:09:38.599Z,48.64
2022-10-09T13:12:13.486Z,49.02
2022-10-09T13:14:46.493Z,50.81
2022-10-09T13:17:24.968Z,50.43
2022-10-09T13:19:54.943Z,49.48
2022-10-09T13:22:25.581Z,49.08
2022-10-09T13:24:55.790Z,48.68
2022-10-09T13:27:29.800Z,48.28
2022-10-09T13:29:57.282Z,46.95
2022-10-09T13:32:25.057Z,45.04
2022-10-09T13:34:58.211Z,46.83
2022-10-09T13:37:27.120Z,45.75
2022-10-09T13:39:56.985Z,46.61
2022-10-09T13:42:27.726Z,46.20
2022-10-09T13:44:54.629Z,45.70
2022-10-09T13:47:24.699Z,45.45
2022-10-09T13:49:52.137Z,45.73
2022-10-09T13:52:19.082Z,47.02
2022-10-09T13:54:46.037Z,47.76
2022-10-09T13:57:12.986Z,47.80
2022-10-09T13:59:39.973Z,46.55
2022-10-09T14:02:07.317Z,45.39
2022-10-09T14:04:34.497Z,45.43
2022-10-09T14:07:01.430Z,45.39
2022-10-09T14:09:28.348Z,45.14
2022-10-09T14:11:55.293Z,45.11
2022-10-09T14:14:22.529Z,44.22
2022-10-09T14:16:50.694Z,45.66
2022-10-09T14:19:17.999Z,46.26
2022-10-09T14:21:46.709Z,44.52
2022-10-09T14:24:14.464Z,45.20
2022-10-09T14:26:41.455Z,44.38
2022-10-09T14:29:12.753Z,43.90
2022-10-09T14:31:39.868Z,43.50
2022-10-09T14:34:07.100Z,43.92
2022-10-09T14:36:34.256Z,44.71
2022-10-09T14:39:01.334Z,44.93
2022-10-09T14:41:28.695Z,44.31
2022-10-09T14:43:59.505Z,44.74
2022-10-09T14:46:29.734Z,44.87
2022-10-09T14:48:57.906Z,45.83
2022-10-09T14:52:34.982Z,46.33
2022-10-09T14:55:02.870Z,47.19
2022-10-09T14:57:34.373Z,47.18
2022-10-09T15:00:04.533Z,47.27
2022-10-09T15:02:31.495Z,47.09
2022-10-09T15:04:58.441Z,48.03
2022-10-09T15:07:28.000Z,48.89
2022-10-09T15:09:56.849Z,49.48
2022-10-09T15:12:23.801Z,48.61
2022-10-09T15:14:50.690Z,50.06
2022-10-09T15:17:17.600Z,50.20
2022-10-09T15:19:44.727Z,50.29
2022-10-09T15:22:11.759Z,50.56
2022-10-09T15:24:38.842Z,49.70
2022-10-09T15:27:05.988Z,50.96
2022-10-09T15:29:32.909Z,50.87
2022-10-09T15:32:01.936Z,51.00
2022-10-09T15:34:29.307Z,51.50
2022-10-09T15:36:56.233Z,51.94
2022-10-09T15:39:23.629Z,52.35
2022-10-09T15:41:50.587Z,52.63
2022-10-09T15:44:20.498Z,53.22
2022-10-09T15:46:49.120Z,53.27
2022-10-09T15:49:16.387Z,53.29
2022-10-09T15:51:45.859Z,53.50
2022-10-09T15:54:16.023Z,53.97
2022-10-09T15:56:43.017Z,54.64
2022-10-09T15:59:14.036Z,54.78
2022-10-09T16:01:41.027Z,55.23
2022-10-09T16:04:08.535Z,55.84
2022-10-09T16:06:35.582Z,55.86
2022-10-09T16:09:03.951Z,56.31
2022-10-09T16:11:31.357Z,56.47
2022-10-09T16:13:59.200Z,56.35
2022-10-09T16:16:27.574Z,56.70
2022-10-09T16:18:55.658Z,57.34
2022-10-09T16:21:28.816Z,57.86
2022-10-09T16:23:59.268Z,58.66
2022-10-09T16:26:29.140Z,59.18
2022-10-09T16:28:56.344Z,59.65
2022-10-09T16:31:27.992Z,60.20
2022-10-09T16:33:55.027Z,61.22
2022-10-09T16:36:22.174Z,61.41
2022-10-09T16:38:49.307Z,61.99
2022-10-09T16:41:19.343Z,62.73
2022-10-09T16:43:49.797Z,62.90
2022-10-09T16:46:20.909Z,63.10
2022-10-09T16:48:49.115Z,64.13
2022-10-09T16:51:20.142Z,64.18
2022-10-09T16:53:56.865Z,64.59
2022-10-09T16:56:27.799Z,65.17
2022-10-09T16:58:57.890Z,65.05
2022-10-09T17:01:26.103Z,65.30
2022-10-09T17:04:00.096Z,65.83
2022-10-09T17:06:27.874Z,66.95
2022-10-09T17:08:58.309Z,67.13
2022-10-09T17:11:28.193Z,67.29
2022-10-09T17:13:56.846Z,67.66
2022-10-09T17:16:27.379Z,67.56
2022-10-09T17:18:54.670Z,67.63
2022-10-09T17:21:22.051Z,68.41
2022-10-09T17:23:54.523Z,68.42
2022-10-09T17:26:22.400Z,68.74
2022-10-09T17:28:49.931Z,68.94
2022-10-09T17:31:21.595Z,68.77
2022-10-09T17:33:56.789Z,68.85
2022-10-09T17:36:26.585Z,69.18
2022-10-09T17:38:53.871Z,69.86
2022-10-09T17:41:24.394Z,70.54
2022-10-09T17:43:53.359Z,70.87
2022-10-09T17:46:20.984Z,71.42
2022-10-09T17:48:53.856Z,71.45
2022-10-09T17:51:28.162Z,72.40
2022-10-09T17:54:01.189Z,72.58
2022-10-09T17:56:30.052Z,72.64
2022-10-09T17:58:59.477Z,73.18
2022-10-09T18:01:26.821Z,73.45
2022-10-09T18:03:53.962Z,73.36
2022-10-09T18:06:25.085Z,73.65
2022-10-09T18:08:55.776Z,74.08
2022-10-09T18:11:25.917Z,74.10
2022-10-09T18:13:53.659Z,73.69
2022-10-09T18:16:35.415Z,74.26
2022-10-09T18:19:18.234Z,73.96
2022-10-09T18:21:47.582Z,74.15
2022-10-09T18:24:14.949Z,74.92
2022-10-09T18:26:42.667Z,75.16
2022-10-09T18:29:09.775Z,75.46
2022-10-09T18:31:37.810Z,75.85
2022-10-09T18:34:04.742Z,76.15
2022-10-09T18:36:33.432Z,76.27
2022-10-09T18:39:05.795Z,76.21
2022-10-09T18:41:33.395Z,75.91
2022-10-09T18:44:01.391Z,76.47
2022-10-09T18:46:38.398Z,76.95
2022-10-09T18:49:09.949Z,76.83
2022-10-09T18:51:40.230Z,77.09
2022-10-09T18:54:08.157Z,76.88
2022-10-09T18:56:36.810Z,77.09
2022-10-09T18:59:12.316Z,77.41
2022-10-09T19:01:39.417Z,77.67
2022-10-09T19:04:06.396Z,77.73
2022-10-09T19:06:33.374Z,77.99
2022-10-09T19:09:00.938Z,78.30
2022-10-09T19:11:30.616Z,78.02
2022-10-09T19:14:02.003Z,78.55
2022-10-09T19:16:32.331Z,79.26
2022-10-09T19:18:59.867Z,79.41
2022-10-09T19:21:27.264Z,79.71
2022-10-09T19:23:54.792Z,79.86
2022-10-09T19:26:22.864Z,79.57
2022-10-09T19:28:51.893Z,79.67
2022-10-09T19:31:19.046Z,79.72
2022-10-09T19:33:46.491Z,79.92
2022-10-09T19:36:14.485Z,82.43
2022-10-09T19:38:41.929Z,82.58
2022-10-09T19:41:13.446Z,83.23
2022-10-09T19:43:40.893Z,81.12
2022-10-09T19:46:20.729Z,80.58
2022-10-09T19:48:47.743Z,80.04
2022-10-09T19:51:20.491Z,79.51
2022-10-09T19:53:48.884Z,79.69
2022-10-09T19:56:19.294Z,79.50
2022-10-09T19:58:48.346Z,80.19
2022-10-09T20:01:19.431Z,80.60
2022-10-09T20:03:47.791Z,80.77
2022-10-09T20:06:15.377Z,81.18
2022-10-09T20:08:43.657Z,81.11
2022-10-09T20:11:11.910Z,81.22
2022-10-09T20:13:41.312Z,81.47
2022-10-09T20:16:13.013Z,81.94
2022-10-09T20:18:42.280Z,81.94
2022-10-09T20:21:16.903Z,82.32
2022-10-09T20:23:44.612Z,82.39
2022-10-09T20:26:17.930Z,82.65
2022-10-09T20:28:46.311Z,82.65
2022-10-09T20:31:18.086Z,82.42
2022-10-09T20:33:47.559Z,82.47
2022-10-09T20:36:28.873Z,82.18
2022-10-09T20:39:02.057Z,82.11
2022-10-09T20:41:30.474Z,81.56
2022-10-09T20:44:00.017Z,81.82
2022-10-09T20:46:29.314Z,82.04
2022-10-09T20:48:56.792Z,82.76
2022-10-09T20:51:25.389Z,82.93
2022-10-09T20:53:56.184Z,82.85
2022-10-09T20:56:26.948Z,83.50
2022-10-09T20:58:54.834Z,83.17
2022-10-09T21:01:22.601Z,83.58
2022-10-09T21:03:50.590Z,83.20
2022-10-09T21:06:20.598Z,83.61
2022-10-09T21:08:47.760Z,83.87
2022-10-09T21:11:17.356Z,83.98
2022-10-09T21:13:45.776Z,83.99
2022-10-09T21:16:17.332Z,84.04
2022-10-09T21:18:44.588Z,83.96
2022-10-09T21:21:15.311Z,84.44
2022-10-09T21:23:43.850Z,84.47
2022-10-09T21:26:16.713Z,84.49
2022-10-09T21:28:45.247Z,85.92
2022-10-09T21:31:19.264Z,86.86
2022-10-09T21:33:47.232Z,85.53
2022-10-09T21:36:56.271Z,84.93
2022-10-09T21:39:29.857Z,85.26
2022-10-09T21:41:56.861Z,84.74
2022-10-09T21:44:24.039Z,85.01
2022-10-09T21:46:51.033Z,84.95
2022-10-09T21:49:25.506Z,85.38
2022-10-09T21:51:53.221Z,85.18
2022-10-09T21:54:20.925Z,85.24
2022-10-09T21:56:48.637Z,85.19
2022-10-09T21:59:15.817Z,84.94
2022-10-09T22:01:42.922Z,84.70
2022-10-09T22:04:11.142Z,85.29
2022-10-09T22:06:38.208Z,85.21
2022-10-09T22:09:05.150Z,85.33
2022-10-09T22:11:32.117Z,84.98
2022-10-09T22:13:59.594Z,85.48
2022-10-09T22:16:26.607Z,85.91
2022-10-09T22:18:53.724Z,85.55
2022-10-09T22:21:22.815Z,85.88
2022-10-09T22:23:50.742Z,86.05
2022-10-09T22:26:20.848Z,85.98
2022-10-09T22:28:49.402Z,86.76
2022-10-09T22:31:19.257Z,86.52
2022-10-09T22:34:00.985Z,87.11
2022-10-09T22:36:31.266Z,87.00
2022-10-09T22:39:01.385Z,87.18
2022-10-09T22:41:29.807Z,87.01
2022-10-09T22:43:59.293Z,87.29
2022-10-09T22:46:36.453Z,87.23
2022-10-09T22:49:04.741Z,87.62
2022-10-09T22:51:31.779Z,87.79
2022-10-09T22:54:00.332Z,87.53
2022-10-09T22:56:38.667Z,87.03
2022-10-09T22:59:07.634Z,87.70
2022-10-09T23:01:48.437Z,87.58
2022-10-09T23:04:18.550Z,87.92
2022-10-09T23:06:46.518Z,88.25
2022-10-09T23:09:15.442Z,88.28
2022-10-09T23:11:43.210Z,88.20
2022-10-09T23:14:11.827Z,88.34
2022-10-09T23:16:40.011Z,88.79
2022-10-09T23:19:07.357Z,89.31
2022-10-09T23:21:36.528Z,89.18
2022-10-09T23:24:04.574Z,89.55
2022-10-09T23:26:33.050Z,89.57
2022-10-09T23:29:04.594Z,89.69
2022-10-09T23:31:32.379Z,90.26
2022-10-09T23:33:59.806Z,90.74
2022-10-09T23:36:29.465Z,90.45
2022-10-09T23:38:57.992Z,91.29
2022-10-09T23:41:27.634Z,91.65
2022-10-09T23:43:55.351Z,92.20
2022-10-09T23:46:26.457Z,92.29
2022-10-09T23:48:55.275Z,93.25
2022-10-09T23:51:24.863Z,92.85
2022-10-09T23:53:52.421Z,93.39
2022-10-09T23:56:35.024Z,93.19
2022-10-09T23:59:06.082Z,93.58
